METAR Data
IDs: Format: Raw Decoded Include TAF

Data at: 2334 UTC 30 Jun 2022

PKWA 302320Z AUTO 07015KT 10SM SCT050 SCT065 29/25 A2986 RMK AO2 T02900247